»·PEaware :: GSA821 KASE-KDEN

GSA821 :: KASE-KDEN

FLIGHT INFORMATION

Flight Status: Arrived
Operator:
Global Sim Alliance
More flights by this operator :: More flights under this callsign
Pilot: Andre N. (13929)
Aircraft: BOEING 757-200
(B752)
More flights by this aircraft type
Origin: KASE Aspen-Pitkin Co/Sardy
United States
Destination: KDEN Denver Intl
United States
More flights between these airports :: More routes between these airports
Route: +LINDZ8 DBL JNETT TELLR2
File this flight plan on PilotEdge
Remarks:
Altitude:
(Current/Filed)
29,000ft
Speed:
(Current/Filed)
440kts
Departed: 09-May-18 10:27 AM
Arrived: 09-May-18 11:01 AM
Distance/Time
Traveled:
109nm/0:34
Distance/Time
To Go:
Arrived

Flight Plot

Page will automatically refresh every two minutes.


Map Options




Map Legend


Flown Route
Filed Route
Departure Airport
Arrival Airport
Navaid (VOR, NDB)
Fix

Horizontal Profiles

Position Reports

Time Latitude Longitude Heading Altitude Ground
Speed
09-May-18 09:37 39.222175 -106.866829 249 7756ft 0kts
09-May-18 09:38 39.222175 -106.866829 249 7756ft 0kts
09-May-18 09:39 39.222175 -106.866829 249 7756ft 0kts
09-May-18 09:40 39.222175 -106.866829 249 7756ft 0kts
09-May-18 09:41 39.222175 -106.866829 249 7756ft 0kts
09-May-18 09:42 39.222175 -106.866829 249 7756ft 0kts
09-May-18 09:43 39.222175 -106.866829 249 7756ft 0kts
09-May-18 09:44 39.222175 -106.866829 249 7756ft 0kts
09-May-18 09:45 39.222175 -106.866829 249 7756ft 0kts
09-May-18 09:46 39.222175 -106.866829 249 7756ft 0kts
09-May-18 09:47 39.222175 -106.866829 249 7756ft 0kts
09-May-18 09:48 39.222175 -106.866829 249 7756ft 0kts
09-May-18 09:49 39.222175 -106.866829 249 7756ft 0kts
09-May-18 09:50 39.222175 -106.866829 249 7756ft 0kts
09-May-18 09:51 39.222175 -106.866829 249 7756ft 0kts
09-May-18 09:52 39.222175 -106.866829 249 7756ft 0kts
09-May-18 09:53 39.222175 -106.866829 249 7756ft 0kts
09-May-18 09:54 39.222175 -106.866829 249 7756ft 0kts
09-May-18 09:55 39.222188 -106.866821 249 7756ft 0kts
09-May-18 09:56 39.222213 -106.866804 249 7756ft 0kts
09-May-18 09:57 39.222238 -106.866788 248 7756ft 0kts
09-May-18 10:01 39.222175 -106.866829 249 7756ft 0kts
09-May-18 10:02 39.222175 -106.866829 249 7756ft 0kts
09-May-18 10:03 39.222175 -106.866829 249 7756ft 0kts
09-May-18 10:04 39.222175 -106.866829 249 7756ft 0kts
09-May-18 10:05 39.222175 -106.866829 249 7756ft 0kts
09-May-18 10:06 39.222175 -106.866829 249 7756ft 0kts
09-May-18 10:07 39.222175 -106.866829 249 7756ft 0kts
09-May-18 10:08 39.222175 -106.866829 249 7756ft 0kts
09-May-18 10:09 39.222175 -106.866829 249 7756ft 0kts
09-May-18 10:10 39.222175 -106.866829 249 7756ft 0kts
09-May-18 10:11 39.222175 -106.866829 249 7756ft 0kts
09-May-18 10:12 39.222175 -106.866829 249 7756ft 0kts
09-May-18 10:13 39.222175 -106.866829 249 7756ft 0kts
09-May-18 10:14 39.222175 -106.866829 249 7756ft 0kts
09-May-18 10:15 39.222175 -106.866829 249 7756ft 0kts
09-May-18 10:16 39.222175 -106.866829 249 7756ft 0kts
09-May-18 10:17 39.222175 -106.866829 249 7756ft 0kts
09-May-18 10:18 39.222175 -106.866829 249 7756ft 0kts
09-May-18 10:19 39.222175 -106.866829 249 7756ft 0kts
09-May-18 10:20 39.222134 -106.866966 242 7757ft 1kts
09-May-18 10:21 39.221147 -106.866679 158 7766ft 7kts
09-May-18 10:22 39.219637 -106.865958 159 7782ft 5kts
09-May-18 10:23 39.217620 -106.864996 159 7799ft 5kts
09-May-18 10:24 39.215104 -106.863793 159 7822ft 16kts
09-May-18 10:25 39.212344 -106.862522 173 7824ft 0kts
09-May-18 10:26 39.212001 -106.862635 216 7826ft 7kts
09-May-18 10:27 39.216763 -106.865775 339 7806ft 109kts
09-May-18 10:28 39.243962 -106.892872 295 10462ft 117kts
09-May-18 10:29 39.252580 -106.932250 271 11684ft 129kts
09-May-18 10:30 39.269512 -106.985037 312 13105ft 177kts
09-May-18 10:31 39.303114 -107.034500 312 14950ft 190kts
09-May-18 10:32 39.347053 -107.062161 28 16022ft 226kts
09-May-18 10:33 39.360998 -106.975408 88 16089ft 297kts
09-May-18 10:34 39.359964 -106.854294 90 18294ft 358kts
09-May-18 10:35 39.357427 -106.719631 90 19193ft 386kts
09-May-18 10:36 39.354584 -106.583585 90 19197ft 379kts
09-May-18 10:37 39.343147 -106.450248 110 19307ft 380kts
09-May-18 10:38 39.306767 -106.326281 111 19405ft 382kts
09-May-18 10:39 39.271355 -106.207381 111 19463ft 380kts
09-May-18 10:40 39.255950 -106.076982 79 19468ft 380kts
09-May-18 10:41 39.274545 -105.943807 78 19463ft 380kts
09-May-18 10:42 39.293487 -105.809603 78 19464ft 380kts
09-May-18 10:43 39.312855 -105.677173 72 19424ft 378kts
09-May-18 10:44 39.361366 -105.559158 60 18294ft 345kts
09-May-18 10:45 39.396179 -105.450303 86 17333ft 328kts
09-May-18 10:46 39.401249 -105.340704 86 16376ft 310kts
09-May-18 10:47 39.406080 -105.234497 86 15468ft 287kts
09-May-18 10:48 39.410360 -105.139873 86 14604ft 270kts
09-May-18 10:49 39.414561 -105.044893 86 13754ft 263kts
09-May-18 10:50 39.418637 -104.951210 86 12998ft 258kts
09-May-18 10:51 39.426546 -104.857930 82 12045ft 263kts
09-May-18 10:52 39.441253 -104.767593 45 11000ft 253kts
09-May-18 10:53 39.504139 -104.729593 20 10967ft 252kts
09-May-18 10:54 39.569175 -104.697768 20 9890ft 246kts
09-May-18 10:55 39.631231 -104.667772 19 8777ft 231kts
09-May-18 10:56 39.689983 -104.649469 339 7783ft 216kts
09-May-18 10:57 39.744016 -104.661595 359 6969ft 172kts
09-May-18 10:58 39.783175 -104.661110 0 6221ft 129kts
09-May-18 10:59 39.818994 -104.660614 0 5572ft 128kts
09-May-18 11:00 39.846800 -104.660450 350 5328ft 54kts
09-May-18 11:01 39.849165 -104.661661 329 5327ft 4kts
09-May-18 11:02 39.851103 -104.662370 1 5327ft 9kts
09-May-18 11:03 39.855569 -104.662358 337 5327ft 8kts
09-May-18 11:04 39.855959 -104.666698 269 5327ft 17kts
09-May-18 11:05 39.855030 -104.670503 212 5327ft 6kts
09-May-18 11:06 39.854521 -104.670703 191 5327ft 0kts
09-May-18 11:07 39.854522 -104.670703 191 5327ft 0kts
09-May-18 11:08 39.854522 -104.670703 191 5327ft 0kts
09-May-18 11:09 39.854522 -104.670703 191 5327ft 0kts
09-May-18 11:10 39.854522 -104.670703 191 5327ft 0kts
09-May-18 11:11 39.854522 -104.670703 191 5327ft 0kts
09-May-18 11:12 39.854522 -104.670703 191 5327ft 0kts
09-May-18 11:13 39.854518 -104.670697 191 5327ft 0kts
09-May-18 11:14 39.854518 -104.670697 191 5327ft 0kts
09-May-18 11:15 39.854518 -104.670697 191 5327ft 0kts

Navigation Log

Ident Type
1. KASE Airport
2. LINDZ Fix
3. LINDZ Fix
4. DBL Navaid
5. JNETT Fix
6. CRSTE Fix
7. CREDE Fix
8. POWDR Fix
9. THRUU Fix
10. CRAGG Fix
11. NARLE Fix
12. TELLR Fix
13. KDEN Airport